createdAt,value
2023-05-05T00:00:04.146Z,0.30
2023-05-05T00:03:05.776Z,0.30
2023-05-05T00:06:08.189Z,0.50
2023-05-05T00:09:09.767Z,0.57
2023-05-05T00:12:11.364Z,0.30
2023-05-05T00:15:12.953Z,0.20
2023-05-05T00:18:17.591Z,0.40
2023-05-05T00:21:19.183Z,0.30
2023-05-05T00:24:20.733Z,0.45
2023-05-05T00:27:22.260Z,0.40
2023-05-05T00:30:24.374Z,0.40
2023-05-05T00:33:25.964Z,0.50
2023-05-05T00:36:28.545Z,0.43
2023-05-05T00:39:30.612Z,0.35
2023-05-05T00:42:43.851Z,0.40
2023-05-05T00:45:47.927Z,0.30
2023-05-05T00:48:50.450Z,0.40
2023-05-05T00:51:52.192Z,0.40
2023-05-05T00:54:54.006Z,0.30
2023-05-05T00:57:56.928Z,0.30
2023-05-05T01:00:58.511Z,0.93
2023-05-05T01:04:00.195Z,0.50
2023-05-05T01:07:19.589Z,0.30
2023-05-05T01:10:38.415Z,0.40
2023-05-05T01:13:52.665Z,0.40
2023-05-05T01:16:57.963Z,0.32
2023-05-05T01:20:05.084Z,0.35
2023-05-05T01:23:08.614Z,0.30
2023-05-05T01:27:01.053Z,0.30
2023-05-05T01:30:18.342Z,0.40
2023-05-05T01:33:26.157Z,0.30
2023-05-05T01:36:37.265Z,0.50
2023-05-05T01:39:41.331Z,0.40
2023-05-05T01:42:44.035Z,0.40
2023-05-05T01:45:47.243Z,0.40
2023-05-05T01:48:50.784Z,0.50
2023-05-05T01:51:53.413Z,0.63
2023-05-05T01:54:57.589Z,0.50
2023-05-05T01:58:01.259Z,0.30
2023-05-05T02:01:04.063Z,0.40
2023-05-05T02:04:09.763Z,0.45
2023-05-05T02:07:13.074Z,0.40
2023-05-05T02:10:15.246Z,0.52
2023-05-05T02:13:18.909Z,0.32
2023-05-05T02:16:22.767Z,0.30
2023-05-05T02:19:38.873Z,0.50
2023-05-05T02:22:41.074Z,0.47
2023-05-05T02:25:49.143Z,0.45
2023-05-05T02:29:30.733Z,0.28
2023-05-05T02:32:36.118Z,0.40
2023-05-05T02:35:42.145Z,0.50
2023-05-05T02:38:46.376Z,0.40
2023-05-05T02:41:51.287Z,0.40
2023-05-05T02:44:55.328Z,0.50
2023-05-05T02:47:57.015Z,0.40
2023-05-05T02:50:58.522Z,0.40
2023-05-05T02:54:00.939Z,0.52
2023-05-05T02:57:04.004Z,0.40
2023-05-05T03:00:09.602Z,0.47
2023-05-05T03:03:31.014Z,0.32
2023-05-05T03:06:39.342Z,0.43
2023-05-05T03:09:45.839Z,0.40
2023-05-05T03:12:55.810Z,0.50
2023-05-05T03:15:58.696Z,0.40
2023-05-05T03:19:02.605Z,0.55
2023-05-05T03:22:05.014Z,0.50
2023-05-05T03:25:06.856Z,0.40
2023-05-05T03:28:08.436Z,0.40
2023-05-05T03:31:10.329Z,0.30
2023-05-05T03:34:11.911Z,0.40
2023-05-05T03:37:13.435Z,0.40
2023-05-05T03:40:15.074Z,0.50
2023-05-05T03:43:16.851Z,0.55
2023-05-05T03:46:18.519Z,0.43
2023-05-05T03:49:20.135Z,0.40
2023-05-05T03:52:21.704Z,0.47
2023-05-05T03:55:23.233Z,0.40
2023-05-05T03:58:24.855Z,0.40
2023-05-05T04:01:26.467Z,0.40
2023-05-05T04:04:28.172Z,0.85
2023-05-05T04:07:29.889Z,0.30
2023-05-05T04:10:31.598Z,0.40
2023-05-05T04:13:33.185Z,0.30
2023-05-05T04:16:34.745Z,0.60
2023-05-05T04:19:36.295Z,0.30
2023-05-05T04:22:37.841Z,0.40
2023-05-05T04:25:39.396Z,0.50
2023-05-05T04:28:42.063Z,0.50
2023-05-05T04:31:44.172Z,0.52
2023-05-05T04:34:45.792Z,0.50
2023-05-05T04:37:47.374Z,0.30
2023-05-05T04:40:48.913Z,0.30
2023-05-05T04:43:50.521Z,0.50
2023-05-05T04:46:52.066Z,0.43
2023-05-05T04:49:56.720Z,0.50
2023-05-05T04:52:58.245Z,0.40
2023-05-05T04:56:01.345Z,0.50
2023-05-05T04:59:02.919Z,0.68
2023-05-05T05:02:04.618Z,0.55
2023-05-05T05:05:06.813Z,0.50
2023-05-05T05:08:08.359Z,0.40
2023-05-05T05:11:09.980Z,0.50
2023-05-05T05:14:11.507Z,0.40
2023-05-05T05:17:13.176Z,0.45
2023-05-05T05:20:14.780Z,0.35
2023-05-05T05:23:16.338Z,0.50
2023-05-05T05:26:17.959Z,0.40
2023-05-05T05:29:20.529Z,0.40
2023-05-05T05:32:22.429Z,0.57
2023-05-05T05:35:24.005Z,0.47
2023-05-05T05:38:25.613Z,0.75
2023-05-05T05:41:27.092Z,0.63
2023-05-05T05:44:28.637Z,0.50
2023-05-05T05:47:30.240Z,0.40
2023-05-05T05:50:31.818Z,0.40
2023-05-05T05:53:33.684Z,0.43
2023-05-05T05:56:35.300Z,0.40
2023-05-05T05:59:36.870Z,0.50
2023-05-05T06:02:38.860Z,0.40
2023-05-05T06:05:40.522Z,0.38
2023-05-05T06:08:42.079Z,0.50
2023-05-05T06:11:43.646Z,0.40
2023-05-05T06:14:45.207Z,0.40
2023-05-05T06:17:46.856Z,0.70
2023-05-05T06:20:52.466Z,0.55
2023-05-05T06:23:54.215Z,0.57
2023-05-05T06:26:55.763Z,0.60
2023-05-05T06:29:57.368Z,0.57
2023-05-05T06:32:59.048Z,0.50
2023-05-05T06:36:00.619Z,0.50
2023-05-05T06:39:02.134Z,0.50
2023-05-05T06:42:04.340Z,0.40
2023-05-05T06:45:06.407Z,0.50
2023-05-05T06:48:08.418Z,0.50
2023-05-05T06:51:10.119Z,0.60
2023-05-05T06:54:11.695Z,0.40
2023-05-05T06:57:13.265Z,0.40
2023-05-05T07:00:16.893Z,0.32
2023-05-05T07:03:18.739Z,0.30
2023-05-05T07:06:20.413Z,0.35
2023-05-05T07:09:21.993Z,0.30
2023-05-05T07:12:23.809Z,0.20
2023-05-05T07:15:29.350Z,0.30
2023-05-05T07:18:31.356Z,0.20
2023-05-05T07:21:34.155Z,0.20
2023-05-05T07:24:35.725Z,0.38
2023-05-05T07:27:37.690Z,0.20
2023-05-05T07:30:39.239Z,0.22
2023-05-05T07:33:40.818Z,0.32
2023-05-05T07:36:42.601Z,0.30
2023-05-05T07:39:44.207Z,0.30
2023-05-05T07:42:47.481Z,0.20
2023-05-05T07:45:49.077Z,0.35
2023-05-05T07:48:50.640Z,0.30
2023-05-05T07:51:52.974Z,0.30
2023-05-05T07:54:54.501Z,0.40
2023-05-05T07:57:56.069Z,0.52
2023-05-05T08:00:57.696Z,0.70
2023-05-05T08:03:59.511Z,0.57
2023-05-05T08:07:01.122Z,0.40
2023-05-05T08:10:02.701Z,0.60
2023-05-05T08:13:04.401Z,0.70
2023-05-05T08:16:06.470Z,0.60
2023-05-05T08:19:17.611Z,0.70
2023-05-05T08:22:23.110Z,0.85
2023-05-05T08:25:27.452Z,0.68
2023-05-05T08:28:30.033Z,0.73
2023-05-05T08:31:39.742Z,0.40
2023-05-05T08:34:41.330Z,0.40
2023-05-05T08:37:42.982Z,0.50
2023-05-05T08:40:44.962Z,0.40
2023-05-05T08:43:48.203Z,0.43
2023-05-05T08:46:50.577Z,0.40
2023-05-05T08:49:53.904Z,0.60
2023-05-05T08:53:15.810Z,0.43
2023-05-05T08:56:19.413Z,0.50
2023-05-05T08:59:25.129Z,0.60
2023-05-05T09:02:29.920Z,0.40
2023-05-05T09:05:31.880Z,0.40
2023-05-05T09:08:34.168Z,0.50
2023-05-05T09:11:37.541Z,0.40
2023-05-05T09:14:39.112Z,0.52
2023-05-05T09:17:41.905Z,0.47
2023-05-05T09:20:43.495Z,0.40
2023-05-05T09:24:09.439Z,0.40
2023-05-05T09:27:31.661Z,0.45
2023-05-05T09:30:34.747Z,0.40
2023-05-05T09:33:36.504Z,0.47
2023-05-05T09:36:48.878Z,0.50
2023-05-05T09:39:54.729Z,0.52
2023-05-05T09:43:01.864Z,0.70
2023-05-05T09:46:08.216Z,0.55
2023-05-05T09:49:20.338Z,0.63
2023-05-05T09:52:21.938Z,0.70
2023-05-05T09:55:24.272Z,0.75
2023-05-05T09:58:30.909Z,0.60
2023-05-05T10:01:32.631Z,0.85
2023-05-05T10:04:34.275Z,0.70
2023-05-05T10:07:37.130Z,0.70
2023-05-05T10:10:51.534Z,0.70
2023-05-05T10:13:53.557Z,0.60
2023-05-05T10:16:55.654Z,0.77
2023-05-05T10:19:59.847Z,0.60
2023-05-05T10:23:05.077Z,0.70
2023-05-05T10:26:10.314Z,0.80
2023-05-05T10:29:22.681Z,0.65
2023-05-05T10:35:40.283Z,0.60
2023-05-05T10:38:43.526Z,0.50
2023-05-05T10:41:46.313Z,0.90
2023-05-05T10:44:49.145Z,0.70
2023-05-05T10:47:51.849Z,0.70
2023-05-05T10:51:27.471Z,0.70
2023-05-05T10:54:47.838Z,0.70
2023-05-05T10:57:53.328Z,0.93
2023-05-05T11:00:54.955Z,0.88
2023-05-05T11:04:18.266Z,0.68
2023-05-05T11:07:23.841Z,0.60
2023-05-05T11:10:26.403Z,0.80
2023-05-05T11:13:28.403Z,0.95
2023-05-05T11:16:49.881Z,0.68
2023-05-05T11:19:52.544Z,0.70
2023-05-05T11:23:03.252Z,0.60
2023-05-05T11:26:04.948Z,0.80
2023-05-05T11:29:06.662Z,0.80
2023-05-05T11:32:12.775Z,0.70
2023-05-05T11:35:15.412Z,0.73
2023-05-05T11:38:20.942Z,0.60
2023-05-05T11:41:34.374Z,0.50
2023-05-05T11:44:36.214Z,0.50
2023-05-05T11:47:37.929Z,0.55
2023-05-05T11:50:40.238Z,0.60
2023-05-05T11:53:46.709Z,0.60
2023-05-05T11:56:54.909Z,0.50
2023-05-05T11:59:59.222Z,0.90
2023-05-05T12:03:01.128Z,0.60
2023-05-05T12:06:06.841Z,0.70
2023-05-05T12:09:16.039Z,0.60
2023-05-05T12:12:18.830Z,0.68
2023-05-05T12:15:31.068Z,0.50
2023-05-05T12:18:32.720Z,0.60
2023-05-05T12:21:35.407Z,0.63
2023-05-05T12:24:37.017Z,0.85
2023-05-05T12:27:38.981Z,0.88
2023-05-05T12:30:41.208Z,0.50
2023-05-05T12:33:43.600Z,0.73
2023-05-05T12:36:45.428Z,0.70
2023-05-05T12:39:47.118Z,0.60
2023-05-05T12:42:49.246Z,0.60
2023-05-05T12:46:10.858Z,0.50
2023-05-05T12:49:12.827Z,0.60
2023-05-05T12:52:16.331Z,0.50
2023-05-05T12:55:19.749Z,0.57
2023-05-05T12:58:21.661Z,0.57
2023-05-05T13:01:23.224Z,0.40
2023-05-05T13:04:26.328Z,0.60
2023-05-05T13:07:27.888Z,0.75
2023-05-05T13:10:31.228Z,0.57
2023-05-05T13:13:32.835Z,0.50
2023-05-05T13:16:34.518Z,0.55
2023-05-05T13:19:41.809Z,0.45
2023-05-05T13:22:43.413Z,0.43
2023-05-05T13:25:45.177Z,0.55
2023-05-05T13:28:46.871Z,0.75
2023-05-05T13:31:48.855Z,0.50
2023-05-05T13:34:50.928Z,0.50
2023-05-05T13:37:52.471Z,0.50
2023-05-05T13:40:54.120Z,0.40
2023-05-05T13:43:56.584Z,0.60
2023-05-05T13:46:58.220Z,0.50
2023-05-05T13:49:59.784Z,0.70
2023-05-05T13:53:01.442Z,0.60
2023-05-05T13:56:03.298Z,0.70
2023-05-05T13:59:04.928Z,0.63
2023-05-05T14:02:07.735Z,0.40
2023-05-05T14:05:10.133Z,0.60
2023-05-05T14:08:13.228Z,0.50
2023-05-05T14:11:17.140Z,0.68
2023-05-05T14:14:19.693Z,0.40
2023-05-05T14:17:21.977Z,0.50
2023-05-05T14:20:23.826Z,0.50
2023-05-05T14:23:25.405Z,0.50
2023-05-05T14:26:27.576Z,0.50
2023-05-05T14:29:29.089Z,0.40
2023-05-05T14:32:30.932Z,0.50
2023-05-05T14:35:32.570Z,0.50
2023-05-05T14:38:34.263Z,0.47
2023-05-05T14:41:35.953Z,0.50
2023-05-05T14:44:37.488Z,0.40
2023-05-05T14:47:39.078Z,0.50
2023-05-05T14:50:42.273Z,0.30
2023-05-05T14:53:43.886Z,0.30
2023-05-05T14:56:45.491Z,0.40
2023-05-05T14:59:51.253Z,0.40
2023-05-05T15:02:52.826Z,0.63
2023-05-05T15:05:54.457Z,0.60
2023-05-05T15:08:56.027Z,0.70
2023-05-05T15:11:57.592Z,0.50
2023-05-05T15:14:59.105Z,0.60
2023-05-05T15:18:00.689Z,0.60
2023-05-05T15:21:02.297Z,0.45
2023-05-05T15:24:04.924Z,0.40
2023-05-05T15:27:06.698Z,0.40
2023-05-05T15:30:08.821Z,0.40
2023-05-05T15:33:10.420Z,0.40
2023-05-05T15:36:12.352Z,0.40
2023-05-05T15:39:13.872Z,0.30
2023-05-05T15:42:15.606Z,0.40
2023-05-05T15:45:17.531Z,0.40
2023-05-05T15:48:19.067Z,0.35
2023-05-05T15:51:20.671Z,0.40
2023-05-05T15:54:22.485Z,0.30
2023-05-05T15:57:24.146Z,0.20
2023-05-05T16:00:25.824Z,0.30
2023-05-05T16:03:27.569Z,0.40
2023-05-05T16:06:29.512Z,0.20
2023-05-05T16:09:31.059Z,0.30
2023-05-05T16:12:32.645Z,0.30
2023-05-05T16:15:35.694Z,0.32
2023-05-05T16:18:37.263Z,0.22
2023-05-05T16:21:38.874Z,0.20
2023-05-05T16:24:41.973Z,0.30
2023-05-05T16:27:44.786Z,0.30
2023-05-05T16:30:46.382Z,0.30
2023-05-05T16:33:48.018Z,0.30
2023-05-05T16:36:49.552Z,0.20
2023-05-05T16:39:51.107Z,0.25
2023-05-05T16:42:52.772Z,0.20
2023-05-05T16:45:54.343Z,0.20
2023-05-05T16:48:56.364Z,0.20
2023-05-05T16:51:58.308Z,0.25
2023-05-05T16:54:59.921Z,0.20
2023-05-05T16:58:01.608Z,0.20
2023-05-05T17:01:04.119Z,0.20
2023-05-05T17:04:05.723Z,0.20
2023-05-05T17:07:07.581Z,0.20
2023-05-05T17:10:09.966Z,0.20
2023-05-05T17:13:12.896Z,0.15
2023-05-05T17:16:14.616Z,0.10
2023-05-05T17:19:16.734Z,0.20
2023-05-05T17:22:18.276Z,0.10
2023-05-05T17:25:20.077Z,0.10
2023-05-05T17:28:21.657Z,0.20
2023-05-05T17:31:23.199Z,0.20
2023-05-05T17:34:24.817Z,0.10
2023-05-05T17:37:26.389Z,0.15
2023-05-05T17:40:28.137Z,0.20
2023-05-05T17:43:29.789Z,0.10
2023-05-05T17:46:31.760Z,0.20
2023-05-05T17:49:34.813Z,0.10
2023-05-05T17:52:36.694Z,0.20
2023-05-05T17:55:38.274Z,0.20
2023-05-05T17:58:39.844Z,0.20
2023-05-05T18:01:41.547Z,0.20
2023-05-05T18:04:43.460Z,0.20
2023-05-05T18:07:45.014Z,0.10
2023-05-05T18:10:46.725Z,0.15
2023-05-05T18:13:48.248Z,0.20
2023-05-05T18:16:52.324Z,0.17
2023-05-05T18:19:54.005Z,0.20
2023-05-05T18:22:55.598Z,0.20
2023-05-05T18:25:57.101Z,0.10
2023-05-05T18:28:58.626Z,0.10
2023-05-05T18:32:00.190Z,0.20
2023-05-05T18:35:01.797Z,0.10
2023-05-05T18:38:03.840Z,0.20
2023-05-05T18:41:05.435Z,0.20
2023-05-05T18:44:07.055Z,0.20
2023-05-05T18:47:08.897Z,0.20
2023-05-05T18:50:10.614Z,0.20
2023-05-05T18:53:13.656Z,0.15
2023-05-05T18:56:15.250Z,0.20
2023-05-05T18:59:16.813Z,0.20
2023-05-05T19:02:18.722Z,0.20
2023-05-05T19:05:20.350Z,0.20
2023-05-05T19:08:22.578Z,0.20
2023-05-05T19:11:24.423Z,0.20
2023-05-05T19:14:26.068Z,0.20
2023-05-05T19:17:27.761Z,0.20
2023-05-05T19:20:31.723Z,0.40
2023-05-05T19:23:33.443Z,0.30
2023-05-05T19:26:35.387Z,0.30
2023-05-05T19:29:36.958Z,0.30
2023-05-05T19:32:38.560Z,0.20
2023-05-05T19:35:40.100Z,0.20
2023-05-05T19:38:44.514Z,0.28
2023-05-05T19:41:46.201Z,0.40
2023-05-05T19:44:47.741Z,0.30
2023-05-05T19:47:49.289Z,0.40
2023-05-05T19:50:51.172Z,0.40
2023-05-05T19:53:53.660Z,0.20
2023-05-05T19:56:57.180Z,0.28
2023-05-05T19:59:58.970Z,0.20
2023-05-05T20:03:01.310Z,0.20
2023-05-05T20:06:03.071Z,0.20
2023-05-05T20:09:05.219Z,0.35
2023-05-05T20:12:07.148Z,0.20
2023-05-05T20:15:10.073Z,0.20
2023-05-05T20:18:11.591Z,0.20
2023-05-05T20:21:13.406Z,0.25
2023-05-05T20:24:15.253Z,0.30
2023-05-05T20:27:16.875Z,0.28
2023-05-05T20:30:18.406Z,0.30
2023-05-05T20:33:20.165Z,0.30
2023-05-05T20:36:22.930Z,0.30
2023-05-05T20:39:25.035Z,0.30
2023-05-05T20:42:27.804Z,0.30
2023-05-05T20:45:31.762Z,0.20
2023-05-05T20:48:33.318Z,0.30
2023-05-05T20:51:35.159Z,0.20
2023-05-05T20:54:36.997Z,0.20
2023-05-05T20:57:38.723Z,0.45
2023-05-05T21:00:40.356Z,0.40
2023-05-05T21:03:41.929Z,0.30
2023-05-05T21:06:44.891Z,0.30
2023-05-05T21:09:46.820Z,0.30
2023-05-05T21:12:48.508Z,0.25
2023-05-05T21:15:50.489Z,0.20
2023-05-05T21:18:52.078Z,0.20
2023-05-05T21:21:53.797Z,0.25
2023-05-05T21:25:13.814Z,0.20
2023-05-05T21:28:15.399Z,0.20
2023-05-05T21:34:21.426Z,0.30
2023-05-05T21:37:22.941Z,0.30
2023-05-05T21:40:24.519Z,0.30
2023-05-05T21:43:26.715Z,0.25
2023-05-05T21:46:28.444Z,0.30
2023-05-05T21:49:30.538Z,0.50
2023-05-05T21:52:32.282Z,0.70
2023-05-05T21:55:33.840Z,0.47
2023-05-05T21:58:35.481Z,0.50
2023-05-05T22:01:37.232Z,0.40
2023-05-05T22:04:38.856Z,0.40
2023-05-05T22:07:40.752Z,0.30
2023-05-05T22:10:42.347Z,0.30
2023-05-05T22:13:44.055Z,0.32
2023-05-05T22:16:45.891Z,0.65
2023-05-05T22:19:47.505Z,0.40
2023-05-05T22:22:49.054Z,0.30
2023-05-05T22:25:50.608Z,0.30
2023-05-05T22:28:52.132Z,0.30
2023-05-05T22:31:53.814Z,0.30
2023-05-05T22:34:55.473Z,0.40
2023-05-05T22:37:57.038Z,0.40
2023-05-05T22:40:58.546Z,0.40
2023-05-05T22:44:00.208Z,0.40
2023-05-05T22:47:01.784Z,0.30
2023-05-05T22:50:03.520Z,0.20
2023-05-05T22:53:05.076Z,0.20
2023-05-05T22:56:06.740Z,0.30
2023-05-05T22:59:08.355Z,0.30
2023-05-05T23:02:10.255Z,0.30
2023-05-05T23:05:12.057Z,0.30
2023-05-05T23:08:13.714Z,0.20
2023-05-05T23:11:15.577Z,0.20
2023-05-05T23:14:19.398Z,0.30
2023-05-05T23:17:21.156Z,0.20
2023-05-05T23:20:22.828Z,0.20
2023-05-05T23:23:24.661Z,0.20
2023-05-05T23:26:26.305Z,0.20
2023-05-05T23:29:28.286Z,0.20
2023-05-05T23:32:29.839Z,0.25
2023-05-05T23:35:31.432Z,0.20
2023-05-05T23:38:32.965Z,0.13
2023-05-05T23:41:34.535Z,0.20
2023-05-05T23:44:36.063Z,0.20
2023-05-05T23:47:38.104Z,0.20
2023-05-05T23:50:39.680Z,0.20
2023-05-05T23:53:41.272Z,0.30
2023-05-05T23:56:42.894Z,0.30
2023-05-05T23:59:44.760Z,0.22
